Time;durP1;ratioP1;P1;durP2;ratioP2;P2;SDS_P1;SDS_P2;PMS_P1;PMS_P2;Temp;Humidity;BMP_temperature;BMP_pressure;BME280_temperature;BME280_humidity;BME280_pressure;Samples;Min_cycle;Max_cycle;Signal;HPM_P1;HPM_P2
2021/01/28 00:00:17;;;;;;;37.10;24.05;;;;;;;0.76;99.02;98642.13;4936977;29;20082;-74
2021/01/28 00:02:42;;;;;;;36.38;23.58;;;;;;;0.73;99.02;98652.28;4936883;29;20030;-73
2021/01/28 00:05:08;;;;;;;47.78;24.25;;;;;;;0.67;99.02;98641.94;4937111;29;20107;-74
2021/01/28 00:07:34;;;;;;;41.80;24.30;;;;;;;0.66;98.95;98642.78;4936645;29;20024;-72
2021/01/28 00:09:59;;;;;;;41.95;25.25;;;;;;;0.64;99.13;98641.91;4937008;29;20031;-75
2021/01/28 00:12:25;;;;;;;44.33;24.90;;;;;;;0.65;99.23;98635.97;4936550;29;20477;-74
2021/01/28 00:14:50;;;;;;;46.38;26.27;;;;;;;0.65;99.31;98640.22;4936745;29;20042;-72
2021/01/28 00:17:15;;;;;;;46.50;24.40;;;;;;;0.61;99.46;98641.84;4936374;29;20035;-69
2021/01/28 00:19:41;;;;;;;40.90;25.80;;;;;;;0.63;99.40;98635.09;4936666;29;20055;-73
2021/01/28 00:22:06;;;;;;;39.50;24.52;;;;;;;0.67;99.45;98639.41;4936283;29;20114;-68
2021/01/28 00:24:31;;;;;;;43.38;26.38;;;;;;;0.72;99.31;98634.38;4936668;29;20035;-68
2021/01/28 00:26:57;;;;;;;40.33;25.75;;;;;;;0.71;99.32;98623.31;4936434;29;20390;-68
2021/01/28 00:29:22;;;;;;;41.70;26.27;;;;;;;0.68;99.28;98628.41;4936507;29;20122;-74
2021/01/28 00:31:48;;;;;;;39.42;27.10;;;;;;;0.68;99.52;98628.41;4936338;29;20059;-74
2021/01/28 00:34:13;;;;;;;42.10;25.83;;;;;;;0.64;99.39;98631.72;4936355;29;20023;-70
2021/01/28 00:36:38;;;;;;;42.38;26.23;;;;;;;0.65;99.47;98625.78;4935924;29;20039;-74
2021/01/28 00:39:05;;;;;;;47.30;25.80;;;;;;;0.68;99.28;98620.75;4936286;29;20090;-68
2021/01/28 00:41:31;;;;;;;43.33;25.38;;;;;;;0.63;99.39;98612.16;4936026;29;20054;-68
2021/01/28 00:43:56;;;;;;;40.35;24.42;;;;;;;0.74;99.35;98613.19;4936247;29;20485;-68
2021/01/28 00:46:22;;;;;;;40.72;26.23;;;;;;;0.67;99.21;98613.03;4936255;29;20034;-75
2021/01/28 00:48:49;;;;;;;41.60;25.13;;;;;;;0.64;98.99;98613.88;4936077;29;20473;-74
2021/01/28 00:51:15;;;;;;;42.40;25.30;;;;;;;0.57;99.09;98623.91;4950638;29;20023;-73
2021/01/28 00:53:40;;;;;;;45.50;26.08;;;;;;;0.55;99.22;98616.25;4935996;29;20032;-73
2021/01/28 00:56:05;;;;;;;42.40;25.60;;;;;;;0.53;99.19;98610.22;4936014;29;20047;-73
2021/01/28 00:58:30;;;;;;;39.38;25.13;;;;;;;0.56;99.17;98600.09;4936034;29;20087;-73
2021/01/28 07:02:29;;;;;;;30.67;18.77;;;;;;;1.10;100.00;98033.03;5052489;23;20074;-68
2021/01/28 07:05:09;;;;;;;30.30;18.45;;;;;;;1.13;100.00;98025.41;4947649;28;20036;-73
2021/01/28 07:07:45;;;;;;;33.55;19.35;;;;;;;1.11;100.00;98016.03;4948111;29;20028;-73
2021/01/28 07:10:28;;;;;;;29.00;19.00;;;;;;;1.09;100.00;98023.66;4941209;29;20027;-73
2021/01/28 07:12:54;;;;;;;29.65;17.75;;;;;;;1.13;100.00;98017.75;4928292;29;20032;-72
2021/01/28 07:15:20;;;;;;;28.42;18.33;;;;;;;1.17;100.00;98006.72;4931104;28;20094;-74
2021/01/28 07:17:56;;;;;;;37.70;18.48;;;;;;;1.12;100.00;98013.50;4921902;29;20060;-73
2021/01/28 07:20:32;;;;;;;30.48;16.80;;;;;;;1.12;100.00;98003.31;4932247;29;20032;-74
2021/01/28 07:23:22;;;;;;;34.83;19.15;;;;;;;1.09;100.00;97998.16;4904737;28;20028;-73
2021/01/28 07:25:50;;;;;;;34.42;18.25;;;;;;;1.11;100.00;97996.47;4915071;29;20044;-69
2021/01/28 07:28:18;;;;;;;31.00;18.80;;;;;;;1.16;100.00;97994.84;4933055;29;20031;-69
2021/01/28 07:30:49;;;;;;;36.95;19.20;;;;;;;1.12;100.00;97982.91;4926262;29;20027;-71
2021/01/28 07:33:23;;;;;;;36.60;19.75;;;;;;;1.13;100.00;97979.50;4935089;29;20031;-73
2021/01/28 07:35:56;;;;;;;37.75;20.63;;;;;;;1.11;100.00;97976.06;4921486;29;20572;-74
2021/01/28 07:38:27;;;;;;;40.58;20.92;;;;;;;1.14;100.00;97975.25;4932321;29;20468;-73
2021/01/28 07:41:01;;;;;;;34.40;20.15;;;;;;;1.12;100.00;97962.47;4927385;29;20122;-68
2021/01/28 07:43:34;;;;;;;34.42;20.15;;;;;;;1.06;100.00;97952.22;4922216;29;20036;-69
2021/01/28 07:46:34;;;;;;;34.05;19.92;;;;;;;0.97;100.00;97952.19;4933316;29;20131;-68
2021/01/28 07:49:10;;;;;;;36.92;19.48;;;;;;;0.99;100.00;97940.28;4919079;29;20038;-68
2021/01/28 07:51:38;;;;;;;49.83;21.08;;;;;;;1.00;100.00;97931.78;4917521;29;20065;-69
2021/01/28 07:54:22;;;;;;;42.78;20.55;;;;;;;1.06;100.00;97929.25;4924382;29;20032;-68
2021/01/28 07:56:57;;;;;;;36.08;19.58;;;;;;;1.07;100.00;97931.00;4925435;29;20449;-72
2021/01/28 07:59:25;;;;;;;44.53;19.73;;;;;;;1.15;100.00;97921.66;4919312;29;20051;-72
2021/01/28 08:01:53;;;;;;;32.92;20.00;;;;;;;1.24;100.00;97921.72;4932763;29;20096;-72
2021/01/28 08:04:33;;;;;;;40.22;19.10;;;;;;;1.34;100.00;97911.56;4922482;29;20316;-72
2021/01/28 08:07:00;;;;;;;40.95;20.13;;;;;;;1.25;100.00;97908.09;4926601;29;20115;-72
2021/01/28 08:09:26;;;;;;;33.80;18.48;;;;;;;1.29;100.00;97903.88;4922536;29;20036;-72
2021/01/28 08:11:55;;;;;;;34.45;17.50;;;;;;;1.21;100.00;97891.09;4918461;29;20031;-69
2021/01/28 08:14:25;;;;;;;36.67;19.27;;;;;;;1.21;100.00;97891.09;4931351;29;20024;-69
2021/01/28 08:16:54;;;;;;;29.60;17.20;;;;;;;1.43;100.00;97891.19;4926767;29;20028;-72
2021/01/28 08:19:28;;;;;;;44.17;20.50;;;;;;;1.34;100.00;97880.94;4918776;29;20036;-72
2021/01/28 08:22:11;;;;;;;33.60;18.33;;;;;;;1.32;100.00;97875.00;4932767;29;20136;-68
2021/01/28 08:24:39;;;;;;;39.25;19.70;;;;;;;1.36;100.00;97879.25;4923506;29;20063;-68
2021/01/28 08:27:12;;;;;;;39.17;18.88;;;;;;;1.44;100.00;97867.38;4925464;29;20085;-69
2021/01/28 08:29:38;;;;;;;46.30;21.58;;;;;;;1.49;100.00;97860.56;4932595;29;20063;-73
2021/01/28 08:32:17;;;;;;;43.53;18.10;;;;;;;1.35;99.66;97857.97;4920252;29;20448;-69
2021/01/28 08:34:43;;;;;;;37.58;18.08;;;;;;;1.31;100.00;97857.97;4928562;29;20450;-69
2021/01/28 08:37:15;;;;;;;34.20;19.27;;;;;;;1.35;100.00;97847.75;4922887;29;20032;-69
2021/01/28 08:39:50;;;;;;;46.45;19.63;;;;;;;1.30;100.00;97846.91;4932658;29;20039;-74
2021/01/28 08:42:18;;;;;;;43.10;19.15;;;;;;;1.26;100.00;97825.66;4907019;29;20058;-68
2021/01/28 08:44:46;;;;;;;37.08;19.08;;;;;;;1.29;100.00;97830.72;4927936;29;20036;-69
2021/01/28 08:47:26;;;;;;;43.13;18.52;;;;;;;1.41;100.00;97821.44;4927914;29;20520;-72
2021/01/28 08:50:14;;;;;;;43.10;19.65;;;;;;;1.44;100.00;97806.09;4917541;29;20111;-69
2021/01/28 08:52:42;;;;;;;36.45;17.85;;;;;;;1.54;100.00;97810.38;4931925;29;20032;-73
2021/01/28 08:55:19;;;;;;;36.00;18.25;;;;;;;1.50;100.00;97786.56;4928181;29;20032;-68
2021/01/28 08:57:45;;;;;;;35.22;18.60;;;;;;;1.57;100.00;97784.88;4919944;29;20036;-68
2021/01/28 09:00:13;;;;;;;31.17;17.27;;;;;;;1.55;100.00;97789.13;4931663;29;20393;-69
2021/01/28 09:02:44;;;;;;;53.65;20.60;;;;;;;1.57;100.00;97767.00;4924000;29;20114;-68
2021/01/28 09:05:27;;;;;;;35.90;17.92;;;;;;;1.57;100.00;97767.00;4924139;29;20104;-73
2021/01/28 09:07:53;;;;;;;39.60;19.33;;;;;;;1.60;100.00;97761.91;4932282;29;20042;-72
2021/01/28 09:10:28;;;;;;;63.60;22.85;;;;;;;1.62;100.00;97755.09;4921359;29;20039;-72
2021/01/28 09:13:15;;;;;;;40.90;19.50;;;;;;;1.72;100.00;97751.69;4926071;29;20028;-72
2021/01/28 09:15:41;;;;;;;48.70;20.20;;;;;;;1.55;100.00;97750.84;4932012;29;20032;-72
2021/01/28 09:18:15;;;;;;;42.55;18.63;;;;;;;1.74;100.00;97747.47;4904219;29;20031;-72
2021/01/28 09:20:41;;;;;;;37.88;16.77;;;;;;;1.72;100.00;97743.19;4927339;29;20031;-69
2021/01/28 09:23:12;;;;;;;28.27;16.73;;;;;;;1.74;100.00;97731.25;4916327;29;20032;-69
2021/01/28 09:25:38;;;;;;;36.00;18.38;;;;;;;1.69;100.00;97721.06;4931488;29;20023;-69
2021/01/28 09:28:10;;;;;;;39.88;18.90;;;;;;;1.67;100.00;97727.88;4919748;29;20057;-68
2021/01/28 09:30:41;;;;;;;55.85;22.77;;;;;;;1.58;100.00;97715.09;4928149;29;20485;-73
2021/01/28 09:33:36;;;;;;;43.28;19.73;;;;;;;1.73;100.00;97711.69;4927308;29;20046;-74
2021/01/28 09:36:14;;;;;;;45.47;19.98;;;;;;;1.77;100.00;97704.03;4919377;29;20090;-73
2021/01/28 09:38:40;;;;;;;32.47;17.70;;;;;;;1.85;100.00;97698.09;4927602;29;20032;-73
2021/01/28 09:41:24;;;;;;;37.92;18.80;;;;;;;1.93;100.00;97704.00;4926771;29;20027;-72
2021/01/28 09:43:50;;;;;;;39.78;18.70;;;;;;;1.96;100.00;97709.13;4919212;29;20095;-73
2021/01/28 09:46:18;;;;;;;31.77;18.15;;;;;;;2.07;100.00;97702.28;4930603;29;20036;-74
2021/01/28 09:48:47;;;;;;;42.30;20.30;;;;;;;1.95;99.61;97702.31;4923967;29;20098;-72
2021/01/28 09:51:16;;;;;;;43.65;20.27;;;;;;;1.89;99.93;97702.34;4922873;29;20020;-73
2021/01/28 09:53:59;;;;;;;10.00;7.15;;;;;;;2.69;100.00;97691.03;4931477;29;20115;-73
2021/01/28 09:56:24;;;;;;;10.70;6.90;;;;;;;3.13;100.00;97689.09;4922712;29;20055;-73
2021/01/28 09:58:49;;;;;;;34.78;16.25;;;;;;;3.06;100.00;97678.06;4925652;29;20099;-73
2021/01/28 10:01:15;;;;;;;28.88;17.48;;;;;;;2.81;98.34;97693.53;4927620;29;20031;-73
2021/01/28 10:03:40;;;;;;;31.52;16.70;;;;;;;2.60;99.25;97701.28;4919141;29;20067;-73
2021/01/28 10:06:06;;;;;;;31.58;16.38;;;;;;;2.58;99.18;97685.13;4931446;29;20020;-73
2021/01/28 10:08:31;;;;;;;24.90;13.77;;;;;;;2.73;99.22;97690.16;4918286;29;20413;-73
2021/01/28 10:10:56;;;;;;;16.25;9.50;;;;;;;3.21;99.82;97670.28;4903042;29;20038;-73
2021/01/28 10:13:22;;;;;;;25.33;12.77;;;;;;;3.15;99.31;97683.13;4903269;29;20536;-73
2021/01/28 10:15:47;;;;;;;31.33;15.00;;;;;;;3.39;99.24;97676.16;4905096;29;20405;-73
2021/01/28 10:18:12;;;;;;;27.13;11.75;;;;;;;3.15;99.21;97685.69;4907138;29;20035;-73
2021/01/28 10:20:42;;;;;;;11.52;7.25;;;;;;;3.27;99.61;97675.34;4902744;29;20032;-73
2021/01/28 10:23:07;;;;;;;14.32;7.32;;;;;;;3.74;100.00;97663.03;4904730;29;20029;-73
2021/01/28 10:25:33;;;;;;;13.02;7.47;;;;;;;3.80;99.92;97658.72;4904791;29;20035;-73
2021/01/28 10:27:58;;;;;;;16.73;9.63;;;;;;;3.76;99.87;97667.28;4903126;29;20138;-73
2021/01/28 10:30:24;;;;;;;28.52;11.82;;;;;;;3.71;99.70;97669.03;4905540;29;20485;-73
2021/01/28 10:32:50;;;;;;;31.65;13.20;;;;;;;3.63;99.92;97670.84;4901023;29;20086;-73
2021/01/28 10:35:23;;;;;;;30.17;12.63;;;;;;;3.71;98.99;97668.19;4906309;29;20501;-73
2021/01/28 10:37:48;;;;;;;29.95;12.63;;;;;;;3.64;99.37;97659.72;4902567;29;20044;-73
2021/01/28 10:40:15;;;;;;;16.15;9.35;;;;;;;3.69;99.42;97655.41;4906887;29;20421;-73
2021/01/28 10:42:42;;;;;;;11.63;6.65;;;;;;;3.81;99.85;97655.28;4902785;29;20115;-73
2021/01/28 10:45:10;;;;;;;9.98;5.05;;;;;;;4.05;100.00;97643.09;4904783;29;20064;-73
2021/01/28 10:47:36;;;;;;;9.27;4.75;;;;;;;4.08;100.00;97653.31;4903616;29;20028;-73
2021/01/28 10:50:03;;;;;;;17.20;6.55;;;;;;;4.16;100.00;97641.28;4902001;29;20032;-73
2021/01/28 10:52:29;;;;;;;8.45;5.43;;;;;;;4.19;100.00;97630.97;4905297;29;20028;-73
2021/01/28 10:54:54;;;;;;;10.45;6.78;;;;;;;4.19;100.00;97633.53;4903317;29;20489;-73
2021/01/28 10:57:19;;;;;;;6.75;3.80;;;;;;;4.29;100.00;97621.47;4900580;29;20040;-73
2021/01/28 10:59:45;;;;;;;9.07;4.60;;;;;;;4.35;100.00;97617.13;4906529;29;20031;-73
2021/01/28 11:02:10;;;;;;;10.80;4.95;;;;;;;4.45;100.00;97607.59;4900359;29;20074;-73
2021/01/28 11:04:36;;;;;;;5.07;3.65;;;;;;;4.76;99.54;97608.03;4903357;29;20032;-73
2021/01/28 11:07:01;;;;;;;7.40;4.57;;;;;;;4.74;99.68;97604.66;4906468;29;20028;-73
2021/01/28 11:09:26;;;;;;;7.85;3.05;;;;;;;4.95;99.65;97584.69;4904302;29;20032;-73
2021/01/28 11:11:51;;;;;;;3.72;1.98;;;;;;;5.18;98.35;97585.19;4904699;29;20039;-73
2021/01/28 11:14:17;;;;;;;2.67;2.15;;;;;;;5.37;97.04;97576.31;4902088;29;20075;-73
2021/01/28 11:16:42;;;;;;;2.13;1.92;;;;;;;5.34;97.20;97575.50;4906895;29;20433;-73
2021/01/28 11:19:07;;;;;;;4.57;2.53;;;;;;;5.40;96.89;97571.09;4906759;29;20059;-73
2021/01/28 11:21:33;;;;;;;3.20;1.85;;;;;;;5.40;98.09;97560.81;4907581;29;20024;-73
2021/01/28 11:23:59;;;;;;;4.30;2.15;;;;;;;5.40;97.58;97565.13;4908477;29;20030;-73
2021/01/28 11:26:24;;;;;;;2.17;1.80;;;;;;;5.33;98.07;97553.28;4908588;29;20028;-69
2021/01/28 11:28:49;;;;;;;2.20;1.90;;;;;;;5.37;97.76;97540.34;4909151;29;20401;-69
2021/01/28 11:31:15;;;;;;;2.78;2.30;;;;;;;5.28;98.10;97535.38;4906540;29;20024;-69
2021/01/28 11:33:40;;;;;;;3.10;1.88;;;;;;;5.40;97.63;97518.88;4909752;29;20096;-69
2021/01/28 11:36:05;;;;;;;2.63;1.90;;;;;;;5.29;97.90;97505.41;4909341;29;20121;-73
2021/01/28 11:38:31;;;;;;;3.53;1.60;;;;;;;5.44;97.94;97522.25;4909880;29;20059;-74
2021/01/28 11:40:56;;;;;;;2.65;1.30;;;;;;;5.53;97.98;97525.50;4908308;29;20060;-73
2021/01/28 11:43:21;;;;;;;19.13;5.93;;;;;;;5.55;97.48;97528.03;4909627;29;20033;-73
2021/01/28 11:45:47;;;;;;;14.77;4.95;;;;;;;5.66;97.99;97511.56;4904844;29;20036;-73
2021/01/28 11:48:12;;;;;;;9.23;4.35;;;;;;;5.74;97.98;97516.53;4909653;29;20039;-73
2021/01/28 11:50:38;;;;;;;2.05;1.33;;;;;;;6.15;95.68;97499.50;4907983;29;20031;-74
2021/01/28 11:53:03;;;;;;;8.45;2.53;;;;;;;6.10;95.34;97511.59;4908765;29;20027;-74
2021/01/28 11:55:29;;;;;;;5.93;2.40;;;;;;;6.06;96.01;97505.66;4903653;29;20039;-74
2021/01/28 11:57:56;;;;;;;1.67;1.50;;;;;;;5.93;96.99;97497.34;4909094;29;20027;-74
2021/01/28 12:00:23;;;;;;;1.70;1.42;;;;;;;6.03;97.08;97494.59;4907787;29;20144;-74
2021/01/28 12:02:49;;;;;;;2.50;1.85;;;;;;;6.00;97.40;97484.38;4906268;29;20394;-74
2021/01/28 12:05:17;;;;;;;1.55;1.40;;;;;;;6.23;96.57;97486.44;4905567;29;20057;-74
2021/01/28 12:07:42;;;;;;;1.80;1.15;;;;;;;6.20;96.42;97482.25;4909245;29;20534;-74
2021/01/28 12:10:11;;;;;;;1.40;1.10;;;;;;;6.40;93.90;97467.19;4903245;29;20036;-74
2021/01/28 12:12:37;;;;;;;3.30;1.00;;;;;;;6.26;95.93;97461.53;4909012;29;20383;-74
2021/01/28 12:15:06;;;;;;;0.95;0.95;;;;;;;6.46;95.60;97462.81;4903171;29;20035;-74
2021/01/28 12:17:32;;;;;;;1.20;1.10;;;;;;;6.51;94.66;97455.81;4909505;29;20551;-74
2021/01/28 12:19:58;;;;;;;1.50;1.02;;;;;;;6.51;95.34;97458.38;4908163;29;20048;-74
2021/01/28 12:22:23;;;;;;;1.02;1.00;;;;;;;6.65;93.60;97456.34;4908491;29;20036;-74
2021/01/28 12:24:48;;;;;;;1.95;0.98;;;;;;;6.46;95.36;97452.50;4903320;29;20107;-74
2021/01/28 12:27:14;;;;;;;1.30;1.02;;;;;;;6.66;94.98;97442.59;4906983;29;20043;-74
2021/01/28 12:29:40;;;;;;;1.10;1.00;;;;;;;6.47;94.77;97454.19;4908773;29;20042;-74
2021/01/28 12:32:08;;;;;;;17.30;8.10;;;;;;;6.65;94.70;97453.78;4903725;29;20028;-74
2021/01/28 12:34:33;;;;;;;2.03;1.30;;;;;;;6.77;94.11;97448.34;4908325;29;20035;-74
2021/01/28 12:36:59;;;;;;;2.72;1.73;;;;;;;6.64;94.35;97446.94;4908866;29;20036;-74
2021/01/28 12:39:24;;;;;;;1.70;1.60;;;;;;;6.67;96.12;97441.69;4908630;29;20039;-74
2021/01/28 12:41:49;;;;;;;1.77;1.33;;;;;;;6.72;95.37;97441.59;4907431;29;20032;-74
2021/01/28 12:44:14;;;;;;;1.58;1.30;;;;;;;6.69;95.81;97437.38;4904052;29;20062;-74
2021/01/28 12:46:40;;;;;;;1.30;1.20;;;;;;;6.74;95.98;97427.81;4908581;29;20500;-74
2021/01/28 12:49:05;;;;;;;1.80;1.30;;;;;;;6.78;95.97;97432.00;4922995;29;20501;-69
2021/01/28 12:51:30;;;;;;;4.75;1.10;;;;;;;6.77;96.25;97427.75;4907206;29;20167;-73
2021/01/28 12:53:56;;;;;;;2.33;1.42;;;;;;;6.86;96.34;97427.50;4908642;29;20111;-74
2021/01/28 12:56:22;;;;;;;2.53;1.17;;;;;;;6.93;95.22;97429.03;4908232;29;20044;-74
2021/01/28 12:58:47;;;;;;;1.33;1.20;;;;;;;6.98;95.82;97422.94;4905321;29;20122;-74
2021/01/28 13:01:13;;;;;;;6.30;1.27;;;;;;;6.93;96.31;97418.75;4906757;29;20047;-74
2021/01/28 13:03:39;;;;;;;3.58;1.55;;;;;;;7.04;96.29;97425.34;4908202;29;20059;-73
2021/01/28 13:06:04;;;;;;;1.65;1.30;;;;;;;7.02;96.05;97427.97;4904723;29;20048;-72
2021/01/28 13:08:30;;;;;;;3.33;1.50;;;;;;;6.98;96.74;97415.22;4904580;29;20590;-72
2021/01/28 13:10:55;;;;;;;9.45;1.48;;;;;;;6.91;96.64;97424.81;4906871;29;20040;-69
2021/01/28 13:13:20;;;;;;;3.13;2.00;;;;;;;6.93;96.93;97426.47;4908148;29;20433;-73
2021/01/28 13:15:46;;;;;;;2.55;1.77;;;;;;;6.96;96.96;97417.81;4904159;29;20510;-69
2021/01/28 13:18:14;;;;;;;2.40;1.70;;;;;;;6.98;97.54;97420.38;4908006;29;20145;-69
2021/01/28 13:20:39;;;;;;;9.60;2.58;;;;;;;6.90;97.81;97412.81;4906538;29;20040;-69
2021/01/28 13:23:05;;;;;;;5.18;1.60;;;;;;;7.07;97.80;97415.81;4907296;29;20108;-69
2021/01/28 13:25:31;;;;;;;3.83;1.40;;;;;;;6.97;98.48;97406.66;4902607;29;20049;-69
2021/01/28 13:27:56;;;;;;;2.83;1.35;;;;;;;6.90;98.92;97408.50;4907819;29;20485;-69
2021/01/28 13:30:24;;;;;;;2.10;1.58;;;;;;;6.98;98.97;97412.63;4906581;29;20497;-69
2021/01/28 13:32:49;;;;;;;3.45;1.60;;;;;;;7.13;98.10;97414.81;4907605;29;20040;-68
2021/01/28 13:35:18;;;;;;;3.13;1.35;;;;;;;7.24;97.88;97411.94;4907617;29;20051;-68
2021/01/28 13:37:44;;;;;;;1.35;1.25;;;;;;;7.35;97.18;97415.06;4906974;29;20540;-68
2021/01/28 13:40:12;;;;;;;3.70;1.38;;;;;;;7.51;96.96;97408.63;4906543;29;20731;-68
2021/01/28 13:42:37;;;;;;;2.40;1.70;;;;;;;7.32;96.98;97417.75;4907282;29;20032;-68
2021/01/28 13:45:04;;;;;;;3.50;1.30;;;;;;;7.45;96.75;97414.81;4904191;29;20466;-69
2021/01/28 13:47:30;;;;;;;3.88;1.25;;;;;;;7.58;96.47;97422.19;4907484;29;20039;-69
2021/01/28 13:49:55;;;;;;;8.52;4.32;;;;;;;7.60;96.58;97420.41;4906996;29;20039;-69
2021/01/28 13:52:20;;;;;;;1.50;1.15;;;;;;;7.67;96.24;97421.91;4903158;29;20032;-69
2021/01/28 13:54:46;;;;;;;2.42;1.50;;;;;;;7.73;97.05;97411.44;4907532;29;20076;-69
2021/01/28 13:57:11;;;;;;;2.10;1.70;;;;;;;7.78;96.00;97414.72;4905268;29;20119;-69
2021/01/28 13:59:38;;;;;;;4.15;1.58;;;;;;;7.69;96.56;97426.16;4907316;29;20035;-69
2021/01/28 14:02:05;;;;;;;4.20;1.48;;;;;;;7.83;96.13;97412.88;4903332;29;20043;-73
2021/01/28 14:04:31;;;;;;;4.47;1.60;;;;;;;7.94;96.45;97421.13;4901452;29;20059;-68
2021/01/28 14:06:56;;;;;;;4.15;1.77;;;;;;;8.01;96.53;97415.78;4907459;29;20124;-73
2021/01/28 14:09:21;;;;;;;2.90;1.70;;;;;;;8.14;95.71;97417.13;4921902;29;20387;-74
2021/01/28 14:11:46;;;;;;;3.40;1.90;;;;;;;8.15;95.91;97413.63;4905717;29;20122;-73
2021/01/28 14:14:12;;;;;;;3.92;1.88;;;;;;;8.06;96.38;97413.91;4907483;29;20028;-69
2021/01/28 14:16:37;;;;;;;3.00;2.22;;;;;;;8.09;95.63;97424.16;4907325;29;20608;-72
2021/01/28 14:19:02;;;;;;;5.45;2.00;;;;;;;8.14;96.70;97417.13;4905728;29;20162;-75
2021/01/28 14:21:28;;;;;;;6.60;3.67;;;;;;;8.43;95.50;97424.84;4895157;29;20140;-69
2021/01/28 14:23:53;;;;;;;9.48;4.38;;;;;;;8.26;95.74;97424.47;4907194;29;20044;-75
2021/01/28 14:26:18;;;;;;;8.40;3.60;;;;;;;8.42;96.01;97428.31;4902769;29;20518;-74
2021/01/28 14:28:44;;;;;;;3.97;2.60;;;;;;;8.21;97.02;97423.75;4907365;29;20046;-75
2021/01/28 14:31:09;;;;;;;11.23;5.70;;;;;;;8.42;96.78;97423.16;4903880;29;20044;-75
2021/01/28 14:33:34;;;;;;;1.75;1.20;;;;;;;8.71;95.71;97421.38;4901670;29;20029;-74
2021/01/28 14:36:00;;;;;;;0.95;0.90;;;;;;;9.01;94.76;97424.69;4907073;29;20044;-74
2021/01/28 14:38:26;;;;;;;1.13;1.02;;;;;;;9.34;94.03;97417.53;4901610;29;20059;-74
2021/01/28 14:40:53;;;;;;;0.60;0.60;;;;;;;9.51;92.50;97422.09;4904800;29;20031;-74
2021/01/28 14:43:18;;;;;;;1.15;0.60;;;;;;;9.53;93.02;97421.16;4906711;29;20074;-73
2021/01/28 14:45:44;;;;;;;0.85;0.70;;;;;;;9.84;91.75;97422.63;4906940;29;20115;-74
2021/01/28 14:48:09;;;;;;;3.97;2.72;;;;;;;9.77;90.95;97414.25;4907246;29;20030;-74
2021/01/28 14:50:35;;;;;;;1.05;0.90;;;;;;;9.84;91.46;97404.50;4904505;29;20036;-74
2021/01/28 14:53:00;;;;;;;0.73;0.68;;;;;;;9.74;91.32;97416.09;4904205;29;20028;-74
2021/01/28 14:55:25;;;;;;;1.00;0.88;;;;;;;9.88;89.86;97406.09;4907150;29;20473;-74
2021/01/28 14:57:52;;;;;;;0.60;0.60;;;;;;;9.88;90.86;97410.41;4910644;29;20931;-74
2021/01/28 15:00:18;;;;;;;1.42;0.50;;;;;;;9.92;89.99;97407.66;4904378;29;20108;-73
2021/01/28 15:02:43;;;;;;;3.33;1.20;;;;;;;10.03;90.37;97417.59;4906647;29;20046;-74
2021/01/28 15:05:10;;;;;;;0.68;0.50;;;;;;;10.01;89.80;97411.66;4910455;29;20040;-74
2021/01/28 15:07:35;;;;;;;0.68;0.68;;;;;;;9.94;89.81;97413.59;4910452;29;20036;-74
2021/01/28 15:10:01;;;;;;;1.25;0.80;;;;;;;9.89;90.93;97422.44;4905948;29;20457;-74
2021/01/28 15:12:27;;;;;;;0.93;0.55;;;;;;;9.84;90.43;97424.38;4910006;29;20498;-74
2021/01/28 15:14:52;;;;;;;1.13;0.70;;;;;;;9.84;90.92;97440.72;4910331;29;20028;-74
2021/01/28 15:17:17;;;;;;;0.65;0.65;;;;;;;9.80;90.66;97446.91;4908230;29;20028;-74
2021/01/28 15:19:43;;;;;;;1.10;0.80;;;;;;;9.73;91.53;97442.88;4914114;29;20070;-73
2021/01/28 15:22:08;;;;;;;0.60;0.60;;;;;;;9.63;91.80;97452.69;4908981;29;20032;-74
2021/01/28 15:24:33;;;;;;;10.02;5.70;;;;;;;9.70;91.33;97453.31;4907282;29;20046;-74
2021/01/28 15:26:59;;;;;;;4.05;1.63;;;;;;;9.64;91.33;97448.38;4908474;29;20059;-74
2021/01/28 15:29:24;;;;;;;1.08;0.70;;;;;;;9.55;92.56;97453.88;4905119;29;20025;-68
2021/01/28 15:31:50;;;;;;;2.85;0.90;;;;;;;9.69;91.18;97446.47;4907863;29;20059;-72
2021/01/28 15:34:16;;;;;;;2.15;1.80;;;;;;;9.68;91.23;97455.13;4920849;29;20032;-69
2021/01/28 15:36:41;;;;;;;3.42;1.10;;;;;;;9.64;91.21;97463.88;4910273;29;20060;-73
2021/01/28 15:39:06;;;;;;;1.50;1.23;;;;;;;9.69;91.17;97472.31;4905471;29;20046;-73
2021/01/28 15:41:32;;;;;;;5.22;3.80;;;;;;;9.69;91.44;97467.16;4908541;29;20123;-68
2021/01/28 15:43:57;;;;;;;1.40;1.30;;;;;;;9.61;92.03;97459.66;4909397;29;20111;-69
2021/01/28 15:46:23;;;;;;;2.38;1.00;;;;;;;9.70;91.48;97469.66;4906318;29;20043;-74
2021/01/28 15:48:48;;;;;;;3.30;1.10;;;;;;;9.73;91.44;97458.38;4908492;29;20028;-73
2021/01/28 15:51:14;;;;;;;1.25;0.70;;;;;;;9.99;89.89;97470.38;4907831;29;20040;-68
2021/01/28 15:53:40;;;;;;;4.13;2.95;;;;;;;9.84;91.07;97466.59;4909863;29;20493;-74
2021/01/28 15:56:06;;;;;;;10.10;6.25;;;;;;;9.87;90.54;97466.50;4909504;29;20039;-68
2021/01/28 15:58:31;;;;;;;4.20;3.33;;;;;;;10.03;89.19;97471.94;4905736;29;20025;-69
2021/01/28 16:00:56;;;;;;;27.27;15.88;;;;;;;10.04;89.28;97479.63;4906975;29;20050;-69
2021/01/28 16:03:22;;;;;;;31.20;16.92;;;;;;;10.11;89.10;97474.25;4903204;29;20039;-69
2021/01/28 16:05:48;;;;;;;9.48;4.63;;;;;;;10.13;88.99;97477.63;4903486;29;20063;-69
2021/01/28 16:08:13;;;;;;;7.57;4.65;;;;;;;10.12;88.27;97488.88;4907179;29;20055;-74
2021/01/28 16:10:39;;;;;;;11.43;4.85;;;;;;;10.22;88.17;97482.47;4909437;29;20731;-74
2021/01/28 16:13:05;;;;;;;9.02;4.43;;;;;;;10.27;87.76;97480.56;4909266;29;20036;-74
2021/01/28 16:15:31;;;;;;;8.80;4.38;;;;;;;10.29;87.86;97500.31;4909086;29;20461;-73
2021/01/28 16:17:56;;;;;;;31.90;14.95;;;;;;;10.22;88.45;97508.34;4903132;29;20039;-73
2021/01/28 16:20:22;;;;;;;19.25;8.35;;;;;;;10.19;88.75;97506.69;4903450;29;21081;-68
2021/01/28 16:22:49;;;;;;;33.65;14.48;;;;;;;10.26;88.10;97515.97;4909081;29;21102;-68
2021/01/28 16:25:15;;;;;;;87.15;32.17;;;;;;;10.15;88.83;97512.88;4906655;29;20123;-68
2021/01/28 16:27:43;;;;;;;11.10;4.07;;;;;;;10.19;88.59;97513.63;4903223;29;20114;-74
2021/01/28 16:30:09;;;;;;;4.63;2.40;;;;;;;10.22;88.01;97519.53;4903192;29;20039;-74
2021/01/28 16:32:35;;;;;;;19.23;9.45;;;;;;;10.10;89.01;97522.56;4908721;29;20043;-69
2021/01/28 16:35:00;;;;;;;1.88;1.58;;;;;;;10.28;87.90;97523.69;4909157;29;20481;-75
2021/01/28 16:37:26;;;;;;;8.98;4.72;;;;;;;10.14;88.21;97528.47;4908843;29;20408;-73
2021/01/28 16:39:51;;;;;;;5.65;3.55;;;;;;;10.21;88.07;97532.56;4907411;29;20481;-74
2021/01/28 16:42:17;;;;;;;6.00;3.70;;;;;;;10.05;88.63;97525.31;4907555;29;20038;-74
2021/01/28 16:44:42;;;;;;;6.75;4.13;;;;;;;10.14;87.59;97536.25;4903567;29;20498;-74
2021/01/28 16:47:13;;;;;;;3.42;2.72;;;;;;;10.13;88.00;97530.22;4902833;29;20032;-70
2021/01/28 16:49:38;;;;;;;7.15;5.20;;;;;;;10.23;87.24;97543.69;4908651;29;20035;-74
2021/01/28 16:52:04;;;;;;;1.25;0.70;;;;;;;10.29;86.99;97536.56;4908439;29;20409;-73
2021/01/28 16:54:29;;;;;;;0.63;0.63;;;;;;;10.31;87.17;97561.56;4908505;29;20592;-67
2021/01/28 16:56:54;;;;;;;0.82;0.77;;;;;;;10.29;87.43;97561.59;4904360;29;20028;-73
2021/01/28 16:59:20;;;;;;;1.08;0.95;;;;;;;10.21;87.45;97564.44;4906381;29;20032;-69
2021/01/28 17:01:45;;;;;;;1.73;0.95;;;;;;;10.27;87.33;97566.00;4904484;29;20036;-69
2021/01/28 17:04:11;;;;;;;0.95;0.88;;;;;;;10.41;86.12;97571.53;4906015;29;20059;-72
2021/01/28 17:06:36;;;;;;;1.40;1.30;;;;;;;10.32;86.80;97571.84;4908581;29;20118;-74
2021/01/28 17:09:02;;;;;;;1.83;0.80;;;;;;;10.39;86.37;97577.63;4908481;29;20114;-74
2021/01/28 17:11:27;;;;;;;1.25;0.75;;;;;;;10.29;86.46;97582.31;4905197;29;20402;-74
2021/01/28 17:13:53;;;;;;;4.70;0.80;;;;;;;10.22;87.22;97579.06;4902483;29;20032;-74
2021/01/28 17:16:18;;;;;;;0.60;0.60;;;;;;;10.24;86.61;97579.03;4902354;29;20502;-74
2021/01/28 17:18:44;;;;;;;0.90;0.90;;;;;;;10.29;86.64;97574.53;4902246;29;20032;-69
2021/01/28 17:21:09;;;;;;;0.70;0.70;;;;;;;10.22;86.52;97579.06;4904938;29;20028;-73
2021/01/28 17:23:34;;;;;;;1.35;0.70;;;;;;;10.44;85.40;97578.31;4908191;29;20481;-69
2021/01/28 17:26:00;;;;;;;1.33;0.90;;;;;;;10.34;86.12;97580.41;4905768;29;20032;-74
2021/01/28 17:28:25;;;;;;;5.10;1.10;;;;;;;10.26;85.76;97587.63;4906206;29;20028;-73
2021/01/28 17:30:51;;;;;;;0.80;0.80;;;;;;;10.34;85.77;97598.53;4903642;29;20099;-73
2021/01/28 17:33:17;;;;;;;0.65;0.65;;;;;;;10.37;85.59;97603.59;4907960;29;20044;-68